Terminal Aerodrome Forecast
Issued by NWS

Home | Current Version | Previous Version | Text Only | Print | Product List | Glossary On
Versions: 1 2 3 4 5 6 7 8 9 10 11 12 13 14
908
FTUS45 KRIW 051720
TAFCPR
TAF
KCPR 051720Z 0518/0618 22018G26KT P6SM SCT110 BKN200
     FM052300 20010KT P6SM SCT080 BKN150
     FM061300 08013G20KT P6SM VCSH SCT030 BKN070=

USA.gov is the U.S. government's official web portal to all federal, state and local government web resources and services.